Time;durP1;ratioP1;P1;durP2;ratioP2;P2;SDS_P1;SDS_P2;PMS_P1;PMS_P2;Temp;Humidity;BMP_temperature;BMP_pressure;BME280_temperature;BME280_humidity;BME280_pressure;Samples;Min_cycle;Max_cycle;Signal;HPM_P1;HPM_P2
2022/12/22 03:26:29;;;;;;;7.93;3.27;;;;;;;;;;5025856;28;20099;-78
2022/12/22 03:28:55;;;;;;;7.20;3.10;;;;;;;;;;5024717;28;20045;-79
2022/12/22 03:31:21;;;;;;;3.47;3.17;;;;;;;;;;5018583;28;20033;-78
2022/12/22 03:33:47;;;;;;;7.60;3.07;;;;;;;;;;5018944;28;20460;-78
2022/12/22 03:36:15;;;;;;;5.07;2.87;;;;;;;;;;5018679;28;20076;-78
2022/12/22 03:38:41;;;;;;;4.53;3.07;;;;;;;;;;5018195;28;20026;-79
2022/12/22 03:46:28;;;;;;;5.87;2.97;;;;;;;;;;5018440;28;20501;-79
2022/12/22 03:46:38;;;;;;;4.50;2.90;;;;;;;;;;5031993;28;20036;-78
2022/12/22 03:49:11;;;;;;;4.60;2.67;;;;;;;;;;5022057;28;20029;-78
2022/12/22 03:51:38;;;;;;;5.30;3.27;;;;;;;;;;5033374;28;20018;-79
2022/12/22 03:54:04;;;;;;;5.40;3.30;;;;;;;;;;5020689;28;20245;-79
2022/12/22 03:56:30;;;;;;;5.30;3.20;;;;;;;;;;5037923;28;20057;-79
2022/12/22 03:58:57;;;;;;;3.67;2.97;;;;;;;;;;5018986;28;20438;-78
2022/12/22 04:01:23;;;;;;;5.93;3.70;;;;;;;;;;5020060;28;20131;-79
2022/12/22 04:03:49;;;;;;;5.73;3.23;;;;;;;;;;5017941;28;20025;-79
2022/12/22 04:06:19;;;;;;;5.53;3.20;;;;;;;;;;5020564;28;20033;-78
2022/12/22 04:08:45;;;;;;;4.67;3.17;;;;;;;;;;5017357;28;20507;-79
2022/12/22 04:13:57;;;;;;;7.30;3.57;;;;;;;;;;5035263;28;20087;-78
2022/12/22 04:16:23;;;;;;;8.20;3.50;;;;;;;;;;5017595;28;20048;-77
2022/12/22 04:18:49;;;;;;;4.40;2.87;;;;;;;;;;5017505;28;20030;-77
2022/12/22 04:21:15;;;;;;;8.10;3.60;;;;;;;;;;5017689;28;20031;-79
2022/12/22 04:23:41;;;;;;;6.90;3.70;;;;;;;;;;5017558;28;20033;-78
2022/12/22 04:26:08;;;;;;;5.53;3.53;;;;;;;;;;5017592;28;20025;-78
2022/12/22 04:28:34;;;;;;;5.60;4.23;;;;;;;;;;5017327;28;20036;-79
2022/12/22 04:31:00;;;;;;;6.23;3.40;;;;;;;;;;5031147;28;20029;-77
2022/12/22 04:33:28;;;;;;;11.30;6.23;;;;;;;;;;5017482;28;20029;-78
2022/12/22 04:35:54;;;;;;;11.40;7.17;;;;;;;;;;5017241;28;20041;-79
2022/12/22 04:38:20;;;;;;;9.80;3.83;;;;;;;;;;5034596;28;20026;-79
2022/12/22 04:40:46;;;;;;;7.13;4.23;;;;;;;;;;5034596;28;20079;-79
2022/12/22 04:43:12;;;;;;;11.33;5.47;;;;;;;;;;5017048;28;20087;-78
2022/12/22 04:45:40;;;;;;;5.73;3.97;;;;;;;;;;5017351;28;20026;-78
2022/12/22 04:48:06;;;;;;;5.10;4.33;;;;;;;;;;5015398;28;20443;-78
2022/12/22 04:50:32;;;;;;;7.33;4.73;;;;;;;;;;5024538;28;20117;-79
2022/12/22 04:53:01;;;;;;;8.87;5.23;;;;;;;;;;5020060;28;20067;-78
2022/12/22 04:55:27;;;;;;;7.23;4.77;;;;;;;;;;5026731;28;20061;-77
2022/12/22 04:57:55;;;;;;;5.03;3.70;;;;;;;;;;5016955;28;20095;-78
2022/12/22 05:00:21;;;;;;;6.87;3.70;;;;;;;;;;5017530;28;20033;-78
2022/12/22 05:02:47;;;;;;;6.13;4.00;;;;;;;;;;5012963;28;20469;-79
2022/12/22 05:05:16;;;;;;;8.10;4.07;;;;;;;;;;5012722;28;20107;-79
2022/12/22 05:07:42;;;;;;;9.63;5.67;;;;;;;;;;5016855;28;20377;-78
2022/12/22 05:10:09;;;;;;;13.57;6.00;;;;;;;;;;5021326;28;20029;-78
2022/12/22 05:12:54;;;;;;;7.33;4.73;;;;;;;;;;5042940;28;20028;-78
2022/12/22 05:15:27;;;;;;;8.90;5.10;;;;;;;;;;5017461;28;20065;-79
2022/12/22 05:17:54;;;;;;;8.17;5.17;;;;;;;;;;5024291;28;20077;-78
2022/12/22 05:20:20;;;;;;;5.87;4.10;;;;;;;;;;5004219;28;20107;-79
2022/12/22 05:22:47;;;;;;;8.57;4.47;;;;;;;;;;5012178;28;20323;-78
2022/12/22 05:25:16;;;;;;;12.20;6.40;;;;;;;;;;5009176;28;20502;-78
2022/12/22 05:27:43;;;;;;;6.63;4.27;;;;;;;;;;5012888;28;20034;-77
2022/12/22 05:30:09;;;;;;;5.50;3.57;;;;;;;;;;5028054;28;20040;-78
2022/12/22 05:32:35;;;;;;;4.37;3.97;;;;;;;;;;5010212;28;20029;-77
2022/12/22 05:35:02;;;;;;;7.83;3.63;;;;;;;;;;5011910;28;20025;-78
2022/12/22 05:37:37;;;;;;;6.37;4.07;;;;;;;;;;5011211;28;20034;-79
2022/12/22 05:40:04;;;;;;;4.67;3.43;;;;;;;;;;5010934;28;20038;-77
2022/12/22 05:42:36;;;;;;;4.97;3.53;;;;;;;;;;5011091;28;20026;-77
2022/12/22 05:45:03;;;;;;;6.68;4.45;;;;;;;;;;5006496;28;20037;-78
2022/12/22 05:47:29;;;;;;;11.37;6.63;;;;;;;;;;5027782;28;20025;-78
2022/12/22 05:49:57;;;;;;;7.57;4.37;;;;;;;;;;5009042;28;20028;-78
2022/12/22 05:52:23;;;;;;;7.30;4.40;;;;;;;;;;5010379;28;20113;-78
2022/12/22 05:54:49;;;;;;;4.03;3.30;;;;;;;;;;5010335;28;20036;-77
2022/12/22 05:57:15;;;;;;;11.17;4.87;;;;;;;;;;5010362;28;20079;-77
2022/12/22 05:59:41;;;;;;;9.77;6.97;;;;;;;;;;5011883;28;20485;-78
2022/12/22 06:02:10;;;;;;;10.40;6.30;;;;;;;;;;5007990;28;20124;-78
2022/12/22 06:04:36;;;;;;;7.50;5.20;;;;;;;;;;5011058;28;20036;-78
2022/12/22 06:07:02;;;;;;;8.30;5.33;;;;;;;;;;5006086;28;20451;-77
2022/12/22 06:09:28;;;;;;;9.00;5.97;;;;;;;;;;5013127;28;20052;-77
2022/12/22 06:11:54;;;;;;;12.50;6.30;;;;;;;;;;5012291;28;20036;-78
2022/12/22 06:14:22;;;;;;;12.73;6.63;;;;;;;;;;5027074;28;20029;-78
2022/12/22 06:16:51;;;;;;;19.93;7.37;;;;;;;;;;5029338;28;20037;-78
2022/12/22 06:19:17;;;;;;;16.00;7.03;;;;;;;;;;5007531;28;20068;-78
2022/12/22 06:21:43;;;;;;;17.03;7.20;;;;;;;;;;5015022;28;20443;-77
2022/12/22 06:24:09;;;;;;;15.47;8.67;;;;;;;;;;5008758;28;20504;-78
2022/12/22 06:26:35;;;;;;;30.63;18.77;;;;;;;;;;5025239;28;20108;-78
2022/12/22 06:29:01;;;;;;;31.67;18.80;;;;;;;;;;5011490;28;20059;-78
2022/12/22 06:31:29;;;;;;;57.60;34.67;;;;;;;;;;5005728;28;20030;-78
2022/12/22 06:33:55;;;;;;;71.17;37.73;;;;;;;;;;5005967;28;20394;-78
2022/12/22 06:36:22;;;;;;;71.93;40.70;;;;;;;;;;5010173;28;20038;-78
2022/12/22 06:38:48;;;;;;;95.50;46.20;;;;;;;;;;5009139;28;20064;-78
2022/12/22 06:43:07;;;;;;;79.40;36.03;;;;;;;;;;5016111;28;20048;-78
2022/12/22 06:44:00;;;;;;;77.90;38.47;;;;;;;;;;5024748;28;20476;-78
2022/12/22 06:46:26;;;;;;;55.13;30.87;;;;;;;;;;5011377;28;20524;-77
2022/12/22 06:48:52;;;;;;;47.90;23.57;;;;;;;;;;5008457;28;20544;-77
2022/12/22 06:51:18;;;;;;;37.27;19.87;;;;;;;;;;5007566;28;20894;-78
2022/12/22 06:53:44;;;;;;;34.23;16.80;;;;;;;;;;5024142;28;20025;-77
2022/12/22 06:56:14;;;;;;;23.80;13.33;;;;;;;;;;5007957;28;20033;-78
2022/12/22 06:58:55;;;;;;;22.63;13.83;;;;;;;;;;5005799;28;20113;-78
2022/12/22 07:01:21;;;;;;;31.67;15.80;;;;;;;;;;5006082;28;20091;-78
2022/12/22 07:03:53;;;;;;;35.10;15.03;;;;;;;;;;5025628;28;20033;-77
2022/12/22 07:09:26;;;;;;;35.40;16.03;;;;;;;;;;5025419;28;20505;-77
2022/12/22 07:11:55;;;;;;;37.57;17.57;;;;;;;;;;5026432;28;20029;-78
2022/12/22 07:14:21;;;;;;;38.40;17.77;;;;;;;;;;5009393;28;20048;-78
2022/12/22 07:16:47;;;;;;;50.97;20.87;;;;;;;;;;5033629;28;20029;-78
2022/12/22 07:19:20;;;;;;;40.47;18.60;;;;;;;;;;5010811;28;20040;-79
2022/12/22 07:22:06;;;;;;;46.38;20.38;;;;;;;;;;5012742;28;20482;-78
2022/12/22 07:24:32;;;;;;;43.30;20.67;;;;;;;;;;5028677;28;20351;-76
2022/12/22 07:26:58;;;;;;;43.07;18.40;;;;;;;;;;5033635;28;20429;-78
2022/12/22 07:29:24;;;;;;;41.70;18.80;;;;;;;;;;5018096;28;20072;-78
2022/12/22 07:31:51;;;;;;;38.10;17.50;;;;;;;;;;5009342;28;20025;-76
2022/12/22 07:34:17;;;;;;;38.57;16.93;;;;;;;;;;5035411;28;20106;-78
2022/12/22 07:36:43;;;;;;;33.30;16.80;;;;;;;;;;5023829;28;20029;-78
2022/12/22 07:39:09;;;;;;;34.73;16.50;;;;;;;;;;5039172;28;20067;-78
2022/12/22 07:44:19;;;;;;;31.60;16.17;;;;;;;;;;5041987;28;20048;-77
2022/12/22 07:46:45;;;;;;;33.17;16.00;;;;;;;;;;5021492;28;20029;-77
2022/12/22 07:52:01;;;;;;;32.07;16.77;;;;;;;;;;4997983;28;20426;-78
2022/12/22 07:54:27;;;;;;;37.23;17.33;;;;;;;;;;5018370;28;20052;-78
2022/12/22 07:56:53;;;;;;;34.00;15.23;;;;;;;;;;5024326;28;20029;-78
2022/12/22 07:59:19;;;;;;;27.73;14.87;;;;;;;;;;5035289;28;20029;-78
2022/12/22 08:01:45;;;;;;;24.57;14.13;;;;;;;;;;5017813;28;20442;-77
2022/12/22 08:04:12;;;;;;;29.90;15.10;;;;;;;;;;5018920;28;20033;-77
2022/12/22 08:06:39;;;;;;;33.37;14.73;;;;;;;;;;5019913;28;20029;-78
2022/12/22 08:09:05;;;;;;;26.73;14.47;;;;;;;;;;5037211;28;20075;-78
2022/12/22 08:11:31;;;;;;;31.17;17.00;;;;;;;;;;5022551;28;20456;-78
2022/12/22 08:13:58;;;;;;;27.90;13.93;;;;;;;;;;5018474;28;20038;-78
2022/12/22 08:16:26;;;;;;;21.80;13.37;;;;;;;;;;5018496;28;20118;-78
2022/12/22 08:18:52;;;;;;;28.03;14.90;;;;;;;;;;5023382;28;20040;-78
2022/12/22 08:21:18;;;;;;;27.27;13.63;;;;;;;;;;5021273;28;20022;-77
2022/12/22 08:23:44;;;;;;;22.10;11.60;;;;;;;;;;5019003;28;20025;-77
2022/12/22 08:26:12;;;;;;;20.10;11.63;;;;;;;;;;5026069;28;20029;-78
2022/12/22 08:28:52;;;;;;;23.73;13.03;;;;;;;;;;5020132;28;20128;-78
2022/12/22 08:31:19;;;;;;;20.57;12.00;;;;;;;;;;5015095;28;20029;-78
2022/12/22 08:33:45;;;;;;;23.83;13.20;;;;;;;;;;5020045;28;20043;-78
2022/12/22 08:36:11;;;;;;;24.30;13.13;;;;;;;;;;5037780;28;20037;-79
2022/12/22 08:38:39;;;;;;;26.30;14.10;;;;;;;;;;5024396;28;20040;-78
2022/12/22 08:41:05;;;;;;;27.60;15.33;;;;;;;;;;5017240;28;20448;-78
2022/12/22 08:43:32;;;;;;;26.90;15.57;;;;;;;;;;5010414;28;20067;-78
2022/12/22 08:45:58;;;;;;;27.27;15.40;;;;;;;;;;5018615;28;20457;-78
2022/12/22 08:48:24;;;;;;;26.93;15.40;;;;;;;;;;5029878;28;20148;-79
2022/12/22 08:50:50;;;;;;;27.67;16.77;;;;;;;;;;5031704;28;20101;-79
2022/12/22 08:53:16;;;;;;;24.93;15.97;;;;;;;;;;5014756;28;20127;-78
2022/12/22 08:55:50;;;;;;;25.43;15.67;;;;;;;;;;5017706;28;20029;-79
2022/12/22 08:58:16;;;;;;;28.57;17.30;;;;;;;;;;5020843;28;20451;-79
2022/12/22 09:00:42;;;;;;;34.50;19.03;;;;;;;;;;5025133;28;20030;-79
2022/12/22 09:03:08;;;;;;;27.07;17.17;;;;;;;;;;5031531;28;20137;-78
2022/12/22 09:05:37;;;;;;;25.77;16.57;;;;;;;;;;5024245;28;20414;-78
2022/12/22 09:08:03;;;;;;;31.20;18.50;;;;;;;;;;5017759;28;20025;-79
2022/12/22 09:10:31;;;;;;;28.00;17.23;;;;;;;;;;5037184;28;20045;-79
2022/12/22 09:12:58;;;;;;;31.73;19.13;;;;;;;;;;5015190;28;20111;-78
2022/12/22 09:15:24;;;;;;;31.37;19.20;;;;;;;;;;5020244;28;20025;-78
2022/12/22 09:20:55;;;;;;;33.57;20.43;;;;;;;;;;4977883;28;20118;-79
2022/12/22 09:23:21;;;;;;;35.53;21.10;;;;;;;;;;4962527;28;20560;-79
2022/12/22 09:25:47;;;;;;;33.07;19.97;;;;;;;;;;4964301;28;20038;-79
2022/12/22 09:28:16;;;;;;;33.73;19.40;;;;;;;;;;4961116;28;20138;-78
2022/12/22 09:30:42;;;;;;;34.47;20.50;;;;;;;;;;4963860;28;20046;-79
2022/12/22 09:33:10;;;;;;;33.87;18.60;;;;;;;;;;4953850;29;20035;-79
2022/12/22 09:35:40;;;;;;;32.63;18.53;;;;;;;;;;4973557;28;20027;-79
2022/12/22 09:38:06;;;;;;;32.87;19.07;;;;;;;;;;4963537;28;20039;-78
2022/12/22 09:40:32;;;;;;;29.47;17.43;;;;;;;;;;4963011;28;20031;-79
2022/12/22 09:42:58;;;;;;;28.33;18.67;;;;;;;;;;4959283;28;20043;-79
2022/12/22 09:45:25;;;;;;;30.30;17.50;;;;;;;;;;4956304;28;20428;-79
2022/12/22 09:47:52;;;;;;;28.80;19.00;;;;;;;;;;4951666;28;20483;-78
2022/12/22 09:50:22;;;;;;;33.43;19.27;;;;;;;;;;4959869;28;20041;-78
2022/12/22 09:52:50;;;;;;;29.10;19.57;;;;;;;;;;4972897;28;20035;-79
2022/12/22 09:55:25;;;;;;;32.70;21.00;;;;;;;;;;4968319;28;20026;-79
2022/12/22 09:57:55;;;;;;;30.73;18.63;;;;;;;;;;4985212;28;20037;-78
2022/12/22 10:00:25;;;;;;;29.40;19.17;;;;;;;;;;5037130;28;20029;-79
2022/12/22 10:03:10;;;;;;;33.47;19.17;;;;;;;;;;5033672;28;20018;-79
2022/12/22 10:05:50;;;;;;;32.60;19.17;;;;;;;;;;5019875;28;20033;-78
2022/12/22 10:08:19;;;;;;;28.80;17.60;;;;;;;;;;5022637;28;20433;-78
2022/12/22 10:10:45;;;;;;;31.50;19.17;;;;;;;;;;5026063;28;20039;-79
2022/12/22 10:13:16;;;;;;;33.57;18.27;;;;;;;;;;5023762;28;20434;-80
2022/12/22 10:15:42;;;;;;;35.20;20.20;;;;;;;;;;5012519;28;20038;-80
2022/12/22 10:18:14;;;;;;;31.07;19.20;;;;;;;;;;5033903;28;20030;-78
2022/12/22 10:20:40;;;;;;;35.30;19.77;;;;;;;;;;5019294;28;20362;-80
2022/12/22 10:23:12;;;;;;;35.80;19.33;;;;;;;;;;5019724;28;20032;-79
2022/12/22 10:25:40;;;;;;;34.13;19.45;;;;;;;;;;5017618;28;20026;-79
2022/12/22 10:28:15;;;;;;;38.13;19.90;;;;;;;;;;5021799;28;20025;-79
2022/12/22 10:30:41;;;;;;;38.93;21.80;;;;;;;;;;5020390;28;20025;-79
2022/12/22 10:33:09;;;;;;;37.43;20.90;;;;;;;;;;5023644;28;20026;-79
2022/12/22 10:35:54;;;;;;;41.57;22.63;;;;;;;;;;5026123;28;20118;-79
2022/12/22 10:38:23;;;;;;;33.73;18.70;;;;;;;;;;5030480;28;20036;-78
2022/12/22 10:40:51;;;;;;;32.77;20.00;;;;;;;;;;5019132;28;20449;-80
2022/12/22 10:43:22;;;;;;;34.67;22.07;;;;;;;;;;5022348;28;20557;-79
2022/12/22 10:45:48;;;;;;;32.60;19.10;;;;;;;;;;5037309;28;20025;-80
2022/12/22 10:48:15;;;;;;;34.67;20.77;;;;;;;;;;5019656;28;20021;-77
2022/12/22 10:50:47;;;;;;;35.47;22.03;;;;;;;;;;5027737;28;20461;-79
2022/12/22 10:53:13;;;;;;;36.80;20.73;;;;;;;;;;5028269;28;20029;-80
2022/12/22 10:55:40;;;;;;;35.43;21.40;;;;;;;;;;5027003;28;20381;-79
2022/12/22 10:58:14;;;;;;;34.50;20.37;;;;;;;;;;5021820;28;20025;-79
2022/12/22 11:00:41;;;;;;;45.40;29.13;;;;;;;;;;5035294;28;20021;-78
2022/12/22 11:03:13;;;;;;;35.70;22.90;;;;;;;;;;5016249;28;20083;-79
2022/12/22 11:05:39;;;;;;;31.48;17.08;;;;;;;;;;5036932;28;20024;-79
2022/12/22 11:08:17;;;;;;;23.83;14.20;;;;;;;;;;5018822;28;20117;-79
2022/12/22 11:10:49;;;;;;;18.53;10.77;;;;;;;;;;5020130;28;20030;-78
2022/12/22 11:13:21;;;;;;;20.43;12.13;;;;;;;;;;5024737;28;20403;-79
2022/12/22 11:15:54;;;;;;;13.93;8.98;;;;;;;;;;5018628;28;20103;-77
2022/12/22 11:18:30;;;;;;;14.20;9.23;;;;;;;;;;5024618;28;20030;-78
2022/12/22 11:21:07;;;;;;;16.80;11.03;;;;;;;;;;5015009;28;20037;-79
2022/12/22 11:23:52;;;;;;;16.83;11.00;;;;;;;;;;5012243;28;20029;-77
2022/12/22 11:26:36;;;;;;;17.40;11.10;;;;;;;;;;5009066;28;20040;-77
2022/12/22 11:29:25;;;;;;;16.83;11.27;;;;;;;;;;5028441;28;20029;-77
2022/12/22 11:31:56;;;;;;;21.20;12.03;;;;;;;;;;4999397;28;20037;-78
2022/12/22 11:34:22;;;;;;;24.07;13.83;;;;;;;;;;5008283;28;20029;-78
2022/12/22 11:36:48;;;;;;;23.57;14.00;;;;;;;;;;5007214;28;20030;-78
2022/12/22 11:39:15;;;;;;;27.87;14.43;;;;;;;;;;5007552;28;20030;-78
2022/12/22 11:42:00;;;;;;;25.50;14.77;;;;;;;;;;5006491;28;20071;-78
2022/12/22 11:44:26;;;;;;;24.83;14.23;;;;;;;;;;5011621;28;20061;-77
2022/12/22 11:47:01;;;;;;;24.03;13.80;;;;;;;;;;5015649;28;20358;-78
2022/12/22 11:49:27;;;;;;;26.03;13.40;;;;;;;;;;5015729;28;20427;-77
2022/12/22 11:52:08;;;;;;;18.07;12.00;;;;;;;;;;5008315;28;20052;-77
2022/12/22 11:54:53;;;;;;;24.70;13.00;;;;;;;;;;5009181;28;20122;-78
2022/12/22 11:57:41;;;;;;;23.13;11.90;;;;;;;;;;5016421;28;20113;-78
2022/12/22 12:00:09;;;;;;;18.93;11.33;;;;;;;;;;5012894;28;20038;-77
2022/12/22 12:03:02;;;;;;;21.70;11.67;;;;;;;;;;5008837;28;20026;-78
2022/12/22 12:05:28;;;;;;;;;;;;;;;;;;5010678;28;20030;-78
2022/12/22 12:08:06;;;;;;;20.23;10.83;;;;;;;;;;5016486;28;19920;-77
2022/12/22 12:10:44;;;;;;;22.60;10.30;;;;;;;;;;5025595;28;20026;-78
2022/12/22 12:13:20;;;;;;;26.10;13.50;;;;;;;;;;5011957;28;20577;-78
2022/12/22 12:15:58;;;;;;;18.70;10.60;;;;;;;;;;5029348;28;20064;-79
2022/12/22 12:18:25;;;;;;;20.40;12.40;;;;;;;;;;5013030;28;20029;-78
2022/12/22 12:21:02;;;;;;;24.07;12.60;;;;;;;;;;5014038;28;20048;-79
2022/12/22 12:23:47;;;;;;;24.50;12.97;;;;;;;;;;5008837;28;20079;-78
2022/12/22 12:26:22;;;;;;;23.43;13.33;;;;;;;;;;5029980;28;20033;-79
2022/12/22 12:29:06;;;;;;;23.77;11.63;;;;;;;;;;5007496;28;20026;-78
2022/12/22 12:31:37;;;;;;;24.50;13.90;;;;;;;;;;5012963;28;20470;-78
2022/12/22 12:34:04;;;;;;;19.27;10.67;;;;;;;;;;5012308;28;20064;-78
2022/12/22 12:36:39;;;;;;;18.37;10.23;;;;;;;;;;5034227;28;20038;-79
2022/12/22 12:39:11;;;;;;;18.10;7.47;;;;;;;;;;5016722;28;20036;-77
2022/12/22 12:41:56;;;;;;;13.57;7.18;;;;;;;;;;5015848;28;20038;-78
2022/12/22 12:44:25;;;;;;;13.63;7.40;;;;;;;;;;5019540;28;20026;-79
2022/12/22 12:46:51;;;;;;;10.50;6.67;;;;;;;;;;5010670;28;20018;-78
2022/12/22 12:49:36;;;;;;;13.77;7.33;;;;;;;;;;5015121;28;20515;-78
2022/12/22 12:52:05;;;;;;;12.17;7.57;;;;;;;;;;5016805;28;20121;-78
2022/12/22 12:54:31;;;;;;;14.07;7.80;;;;;;;;;;5011080;28;20033;-79
2022/12/22 12:57:07;;;;;;;13.17;7.90;;;;;;;;;;5010726;28;20184;-78
2022/12/22 12:59:39;;;;;;;13.83;7.77;;;;;;;;;;5014224;28;20041;-77
2022/12/22 13:02:25;;;;;;;13.35;7.95;;;;;;;;;;5027628;28;20035;-78
2022/12/22 13:05:03;;;;;;;12.87;7.27;;;;;;;;;;5014287;28;20044;-78
2022/12/22 13:07:48;;;;;;;17.77;8.03;;;;;;;;;;5010950;28;20040;-78
2022/12/22 13:10:21;;;;;;;12.53;7.83;;;;;;;;;;5028549;28;20061;-78
2022/12/22 13:12:52;;;;;;;16.83;7.80;;;;;;;;;;5013492;28;20049;-78
2022/12/22 13:15:27;;;;;;;16.00;7.23;;;;;;;;;;5015456;28;20037;-79
2022/12/22 13:17:53;;;;;;;10.67;6.80;;;;;;;;;;5023143;28;20529;-79
2022/12/22 13:20:39;;;;;;;10.17;6.43;;;;;;;;;;5039122;28;20057;-78
2022/12/22 13:23:15;;;;;;;11.37;6.90;;;;;;;;;;5021563;28;20034;-79
2022/12/22 13:25:41;;;;;;;8.93;6.27;;;;;;;;;;5034425;28;20036;-78
2022/12/22 13:28:11;;;;;;;10.33;6.37;;;;;;;;;;5022094;28;20021;-79
2022/12/22 13:30:37;;;;;;;9.67;5.70;;;;;;;;;;5018934;28;20206;-79
2022/12/22 13:33:08;;;;;;;9.10;5.97;;;;;;;;;;5029700;28;20029;-79
2022/12/22 13:35:39;;;;;;;12.17;6.20;;;;;;;;;;5026294;28;20434;-79
2022/12/22 13:38:05;;;;;;;14.53;6.73;;;;;;;;;;5048743;28;20025;-79
2022/12/22 13:40:41;;;;;;;12.87;6.43;;;;;;;;;;5022990;28;20029;-78
2022/12/22 13:43:12;;;;;;;8.57;6.20;;;;;;;;;;5020514;28;20052;-79
2022/12/22 13:45:40;;;;;;;8.90;5.60;;;;;;;;;;5039037;28;20101;-79
2022/12/22 13:48:17;;;;;;;8.07;5.63;;;;;;;;;;5023007;28;20059;-79
2022/12/22 13:50:48;;;;;;;9.47;5.63;;;;;;;;;;5013666;28;20439;-78
2022/12/22 13:53:16;;;;;;;9.73;5.93;;;;;;;;;;5023125;28;20040;-78
2022/12/22 13:55:45;;;;;;;10.50;5.50;;;;;;;;;;5012500;28;20063;-79
2022/12/22 13:58:44;;;;;;;9.40;6.43;;;;;;;;;;5020797;28;20041;-79
2022/12/22 14:01:10;;;;;;;18.47;9.20;;;;;;;;;;5013453;28;20048;-77
2022/12/22 14:03:36;;;;;;;12.57;6.70;;;;;;;;;;5044154;28;20029;-79
2022/12/22 14:06:04;;;;;;;10.90;6.70;;;;;;;;;;5044820;28;20025;-78
2022/12/22 14:08:30;;;;;;;16.40;9.03;;;;;;;;;;5026551;28;20025;-79
2022/12/22 14:10:57;;;;;;;12.93;7.40;;;;;;;;;;5054193;28;20059;-78
2022/12/22 14:13:24;;;;;;;12.27;7.03;;;;;;;;;;5022346;28;20044;-78
2022/12/22 14:16:06;;;;;;;11.87;7.10;;;;;;;;;;5039733;28;20139;-79
2022/12/22 14:18:33;;;;;;;11.60;7.30;;;;;;;;;;5054424;28;20456;-79
2022/12/22 14:20:59;;;;;;;13.37;7.10;;;;;;;;;;5021403;28;20171;-79
2022/12/22 14:23:27;;;;;;;9.37;6.60;;;;;;;;;;5020567;28;20510;-78
2022/12/22 14:25:55;;;;;;;9.97;7.13;;;;;;;;;;5024960;28;20100;-79
2022/12/22 14:28:21;;;;;;;10.13;6.77;;;;;;;;;;5021294;28;20021;-78
2022/12/22 14:30:49;;;;;;;7.67;5.00;;;;;;;;;;5025374;28;20434;-79
2022/12/22 14:33:27;;;;;;;7.40;5.37;;;;;;;;;;5038299;28;20026;-79
2022/12/22 14:36:14;;;;;;;8.80;4.63;;;;;;;;;;5022519;28;20052;-79
2022/12/22 14:38:43;;;;;;;6.90;5.43;;;;;;;;;;5047894;28;20053;-79
2022/12/22 14:41:39;;;;;;;9.40;5.47;;;;;;;;;;5022818;28;20033;-78
2022/12/22 14:43:58;;;;;;;7.20;4.63;;;;;;;;;;5036861;28;20045;-79
2022/12/22 14:46:24;;;;;;;5.80;3.63;;;;;;;;;;5024982;28;20029;-79
2022/12/22 14:48:52;;;;;;;9.17;4.37;;;;;;;;;;5020762;28;20117;-79
2022/12/22 14:51:19;;;;;;;4.70;3.60;;;;;;;;;;5023248;28;20030;-79
2022/12/22 14:53:47;;;;;;;5.97;3.93;;;;;;;;;;5021857;28;20366;-79
2022/12/22 14:56:14;;;;;;;6.30;3.90;;;;;;;;;;5029481;28;20025;-79
2022/12/22 14:58:41;;;;;;;10.43;3.80;;;;;;;;;;5021596;28;20049;-79
2022/12/22 15:01:13;;;;;;;6.80;3.43;;;;;;;;;;5020174;28;20029;-78
2022/12/22 15:03:39;;;;;;;4.97;3.03;;;;;;;;;;5019561;28;20041;-78
2022/12/22 15:06:25;;;;;;;4.37;2.90;;;;;;;;;;5020199;28;20104;-79
2022/12/22 15:08:52;;;;;;;3.50;2.63;;;;;;;;;;5019133;28;20048;-78
2022/12/22 15:11:19;;;;;;;5.00;3.07;;;;;;;;;;5030297;28;20025;-78
2022/12/22 15:13:46;;;;;;;4.90;3.40;;;;;;;;;;5025758;28;20079;-78
2022/12/22 15:16:14;;;;;;;4.27;2.97;;;;;;;;;;5026995;28;20037;-78
2022/12/22 15:18:40;;;;;;;5.83;3.23;;;;;;;;;;5019033;28;20026;-78
2022/12/22 15:21:09;;;;;;;5.67;3.13;;;;;;;;;;5011290;28;20017;-78
2022/12/22 15:23:35;;;;;;;5.37;3.23;;;;;;;;;;5019424;28;20029;-79
2022/12/22 15:26:01;;;;;;;6.43;3.80;;;;;;;;;;5021155;28;20017;-77
2022/12/22 15:28:27;;;;;;;23.90;4.67;;;;;;;;;;5025740;28;20426;-77
2022/12/22 15:30:53;;;;;;;46.20;7.60;;;;;;;;;;5036973;28;20021;-78
2022/12/22 15:33:19;;;;;;;39.77;5.90;;;;;;;;;;5014074;28;20021;-79
2022/12/22 15:35:45;;;;;;;35.97;5.53;;;;;;;;;;5038817;28;20057;-79
2022/12/22 15:38:22;;;;;;;24.53;5.40;;;;;;;;;;5047365;28;20044;-78
2022/12/22 15:40:48;;;;;;;18.27;4.90;;;;;;;;;;5036096;28;20759;-78
2022/12/22 15:43:14;;;;;;;8.93;4.37;;;;;;;;;;5024713;28;20068;-78
2022/12/22 15:45:41;;;;;;;7.90;4.97;;;;;;;;;;5036595;28;20089;-79
2022/12/22 15:48:10;;;;;;;8.90;5.13;;;;;;;;;;5020288;28;20032;-78
2022/12/22 15:50:39;;;;;;;9.57;4.80;;;;;;;;;;5019126;28;20107;-78
2022/12/22 15:53:05;;;;;;;11.83;5.57;;;;;;;;;;5033491;28;20028;-77
2022/12/22 15:55:31;;;;;;;10.20;6.23;;;;;;;;;;5020137;28;20112;-79
2022/12/22 15:58:00;;;;;;;8.50;6.40;;;;;;;;;;5018498;28;20033;-78
2022/12/22 16:00:26;;;;;;;11.97;8.37;;;;;;;;;;5027377;28;20187;-79
2022/12/22 16:02:52;;;;;;;10.10;6.30;;;;;;;;;;5025953;28;20029;-77
2022/12/22 16:05:18;;;;;;;12.50;6.67;;;;;;;;;;5018726;28;20063;-78
2022/12/22 16:07:44;;;;;;;10.17;6.80;;;;;;;;;;5019267;28;20025;-78
2022/12/22 16:10:20;;;;;;;12.53;7.33;;;;;;;;;;5018702;28;20048;-77
2022/12/22 16:12:52;;;;;;;11.90;7.37;;;;;;;;;;5019074;28;20022;-78
2022/12/22 16:15:18;;;;;;;14.48;7.63;;;;;;;;;;5009645;28;20049;-78
2022/12/22 16:17:44;;;;;;;12.93;7.33;;;;;;;;;;5036017;28;20036;-78
2022/12/22 16:20:11;;;;;;;15.73;8.10;;;;;;;;;;5036304;28;20025;-79
2022/12/22 16:22:37;;;;;;;12.53;7.77;;;;;;;;;;5018759;28;20026;-78
2022/12/22 16:25:05;;;;;;;11.60;7.20;;;;;;;;;;5016732;28;20030;-78
2022/12/22 16:27:34;;;;;;;11.40;7.40;;;;;;;;;;5016786;28;20113;-78
2022/12/22 16:30:00;;;;;;;13.23;7.17;;;;;;;;;;5035620;28;20458;-79
2022/12/22 16:32:28;;;;;;;14.10;7.00;;;;;;;;;;5018189;28;20112;-79
2022/12/22 16:35:14;;;;;;;8.97;5.33;;;;;;;;;;5018854;28;20619;-78
2022/12/22 16:37:41;;;;;;;8.43;4.80;;;;;;;;;;5006997;28;20488;-78
2022/12/22 16:40:07;;;;;;;6.77;4.37;;;;;;;;;;5019158;28;20025;-78
2022/12/22 16:42:33;;;;;;;8.97;4.47;;;;;;;;;;5043068;28;20036;-77
2022/12/22 16:45:01;;;;;;;6.67;4.27;;;;;;;;;;5034293;28;20025;-78
2022/12/22 16:47:29;;;;;;;8.57;4.80;;;;;;;;;;5037341;28;20441;-78
2022/12/22 16:49:55;;;;;;;7.13;4.63;;;;;;;;;;5018714;28;20026;-78
2022/12/22 16:52:22;;;;;;;5.97;3.97;;;;;;;;;;5019278;28;20029;-78
2022/12/22 16:54:48;;;;;;;6.40;4.20;;;;;;;;;;5033481;28;20033;-78
2022/12/22 16:57:15;;;;;;;4.30;3.57;;;;;;;;;;5022495;28;20033;-78
2022/12/22 16:59:41;;;;;;;4.63;3.07;;;;;;;;;;5038784;28;20021;-78
2022/12/22 17:02:19;;;;;;;4.73;3.00;;;;;;;;;;5018383;28;20029;-78
2022/12/22 17:04:45;;;;;;;4.23;2.43;;;;;;;;;;5022052;28;20060;-79
2022/12/22 17:07:11;;;;;;;4.23;2.20;;;;;;;;;;5019676;28;20071;-78
2022/12/22 17:09:44;;;;;;;4.27;2.70;;;;;;;;;;5033938;28;20030;-77
2022/12/22 17:12:15;;;;;;;4.47;2.83;;;;;;;;;;5018574;28;20041;-77
2022/12/22 17:14:43;;;;;;;4.07;2.57;;;;;;;;;;5021766;28;20033;-77
2022/12/22 17:17:21;;;;;;;3.33;2.37;;;;;;;;;;5014701;28;20025;-78
2022/12/22 17:19:48;;;;;;;3.93;2.37;;;;;;;;;;5028711;28;20033;-78
2022/12/22 17:22:19;;;;;;;4.27;2.60;;;;;;;;;;5031014;28;20029;-78
2022/12/22 17:24:48;;;;;;;4.23;2.73;;;;;;;;;;5028602;28;20092;-77
2022/12/22 17:27:15;;;;;;;5.00;3.63;;;;;;;;;;5009876;28;20502;-78
2022/12/22 17:29:41;;;;;;;6.47;3.53;;;;;;;;;;5027915;28;20034;-77
2022/12/22 17:32:12;;;;;;;5.00;2.93;;;;;;;;;;5016020;28;20032;-77
2022/12/22 17:34:38;;;;;;;5.77;2.83;;;;;;;;;;5014513;28;20049;-78
2022/12/22 17:37:06;;;;;;;5.77;2.93;;;;;;;;;;5030757;28;20030;-78
2022/12/22 17:39:37;;;;;;;6.17;3.03;;;;;;;;;;5018863;28;20026;-77
2022/12/22 17:42:03;;;;;;;6.27;3.10;;;;;;;;;;5011485;28;20400;-77
2022/12/22 17:44:29;;;;;;;5.97;3.03;;;;;;;;;;5011442;28;20507;-77
2022/12/22 17:46:55;;;;;;;3.87;2.40;;;;;;;;;;5013824;28;20044;-78
2022/12/22 17:49:21;;;;;;;8.23;2.63;;;;;;;;;;5030276;28;20083;-77
2022/12/22 17:51:47;;;;;;;4.00;2.60;;;;;;;;;;5012607;28;20084;-77
2022/12/22 17:54:26;;;;;;;3.13;2.30;;;;;;;;;;5013688;28;20610;-78
2022/12/22 17:57:02;;;;;;;2.97;2.37;;;;;;;;;;5029661;28;20096;-77
2022/12/22 17:59:28;;;;;;;3.73;2.70;;;;;;;;;;5013594;28;20124;-77
2022/12/22 18:01:54;;;;;;;3.53;2.53;;;;;;;;;;5010627;28;20377;-76
2022/12/22 18:04:23;;;;;;;8.57;4.50;;;;;;;;;;5005774;28;20903;-77
2022/12/22 18:06:49;;;;;;;4.83;2.73;;;;;;;;;;5029622;28;20065;-77
2022/12/22 18:09:20;;;;;;;5.33;2.77;;;;;;;;;;5012916;28;20033;-77
2022/12/22 18:11:46;;;;;;;7.30;3.23;;;;;;;;;;5012856;28;20037;-77
2022/12/22 18:14:14;;;;;;;4.10;2.80;;;;;;;;;;5007744;28;20038;-77
2022/12/22 18:16:40;;;;;;;3.57;2.43;;;;;;;;;;5009820;28;20069;-77
2022/12/22 18:19:06;;;;;;;4.63;2.40;;;;;;;;;;5024983;28;20080;-77
2022/12/22 18:21:32;;;;;;;6.80;2.27;;;;;;;;;;5018354;28;20446;-76
2022/12/22 18:23:58;;;;;;;6.20;2.90;;;;;;;;;;5027983;28;20486;-79
2022/12/22 18:26:26;;;;;;;5.33;1.77;;;;;;;;;;5008943;28;20033;-77